Time;durP1;ratioP1;P1;durP2;ratioP2;P2;SDS_P1;SDS_P2;PMS_P1;PMS_P2;Temp;Humidity;BMP_temperature;BMP_pressure;BME280_temperature;BME280_humidity;BME280_pressure;Samples;Min_cycle;Max_cycle;Signal;HPM_P1;HPM_P2
2023/07/29 00:00:24;;;;;;;0.00;0.00;;;;;;;;;;1749856;28;20444;-80
2023/07/29 00:01:15;;;;;;;0.00;0.00;;;;;;;;;;1753225;28;20928;-80
2023/07/29 00:02:07;;;;;;;0.00;0.00;;;;;;;;;;1750449;28;20464;-79
2023/07/29 00:02:58;;;;;;;0.00;0.00;;;;;;;;;;1753272;28;21234;-80
2023/07/29 00:03:50;;;;;;;0.00;0.00;;;;;;;;;;1750592;28;20588;-80
2023/07/29 00:04:41;;;;;;;0.00;0.00;;;;;;;;;;1753207;28;20570;-79
2023/07/29 00:05:32;;;;;;;0.00;0.00;;;;;;;;;;1749066;28;21132;-80
2023/07/29 00:06:25;;;;;;;0.00;0.00;;;;;;;;;;1752435;28;20505;-80
2023/07/29 00:07:16;;;;;;;0.00;0.00;;;;;;;;;;1749299;28;20467;-79
2023/07/29 00:08:08;;;;;;;0.00;0.00;;;;;;;;;;1752905;28;20574;-79
2023/07/29 00:08:59;;;;;;;0.00;0.00;;;;;;;;;;1750804;28;20817;-79
2023/07/29 00:09:51;;;;;;;0.00;0.00;;;;;;;;;;1752484;28;20463;-80
2023/07/29 00:10:43;;;;;;;0.00;0.00;;;;;;;;;;1750804;28;20798;-80
2023/07/29 00:11:34;;;;;;;0.00;0.00;;;;;;;;;;1752835;28;20284;-79
2023/07/29 00:12:27;;;;;;;0.00;0.00;;;;;;;;;;1752553;28;20487;-79
2023/07/29 00:13:19;;;;;;;0.00;0.00;;;;;;;;;;1750267;28;20499;-79
2023/07/29 00:14:10;;;;;;;0.00;0.00;;;;;;;;;;1750582;28;20563;-79
2023/07/29 00:15:02;;;;;;;0.00;0.00;;;;;;;;;;1751132;28;20499;-79
2023/07/29 00:15:54;;;;;;;0.00;0.00;;;;;;;;;;1753315;28;20480;-79
2023/07/29 00:16:46;;;;;;;0.00;0.00;;;;;;;;;;1750288;28;20468;-79
2023/07/29 00:17:38;;;;;;;0.00;0.00;;;;;;;;;;1753139;28;20482;-79
2023/07/29 00:18:29;;;;;;;0.00;0.00;;;;;;;;;;1752519;28;20491;-79
2023/07/29 00:19:23;;;;;;;0.00;0.00;;;;;;;;;;1755071;28;20490;-80
2023/07/29 00:20:15;;;;;;;0.00;0.00;;;;;;;;;;1752475;28;21557;-79
2023/07/29 00:21:06;;;;;;;0.00;0.00;;;;;;;;;;1755045;28;20985;-79
2023/07/29 00:21:57;;;;;;;0.00;0.00;;;;;;;;;;1755358;28;20479;-79
2023/07/29 00:22:49;;;;;;;0.00;0.00;;;;;;;;;;1753755;28;20463;-79
2023/07/29 00:23:40;;;;;;;0.00;0.00;;;;;;;;;;1754603;28;20531;-79
2023/07/29 00:24:32;;;;;;;0.00;0.00;;;;;;;;;;1755428;28;21284;-79
2023/07/29 00:25:24;;;;;;;0.00;0.00;;;;;;;;;;1752732;28;20491;-80
2023/07/29 00:26:15;;;;;;;0.00;0.00;;;;;;;;;;1753108;28;20494;-79
2023/07/29 00:27:07;;;;;;;0.00;0.00;;;;;;;;;;1750477;28;20813;-79
2023/07/29 00:27:59;;;;;;;0.00;0.00;;;;;;;;;;1753099;28;20487;-79
2023/07/29 00:28:50;;;;;;;0.00;0.00;;;;;;;;;;1752070;28;20754;-79
2023/07/29 00:29:42;;;;;;;0.00;0.00;;;;;;;;;;1752775;28;20539;-79
2023/07/29 00:30:33;;;;;;;0.00;0.00;;;;;;;;;;1750690;28;20525;-78
2023/07/29 00:31:24;;;;;;;0.00;0.00;;;;;;;;;;1754886;28;20961;-78
2023/07/29 00:32:17;;;;;;;0.00;0.00;;;;;;;;;;1753779;28;20964;-78
2023/07/29 00:33:08;;;;;;;0.00;0.00;;;;;;;;;;1754769;28;20763;-78
2023/07/29 00:34:00;;;;;;;0.00;0.00;;;;;;;;;;1752189;28;20463;-78
2023/07/29 00:34:51;;;;;;;0.00;0.00;;;;;;;;;;1755134;28;20529;-78
2023/07/29 00:35:42;;;;;;;0.00;0.00;;;;;;;;;;1749562;28;20826;-79
2023/07/29 00:36:34;;;;;;;0.00;0.00;;;;;;;;;;1751703;28;20455;-79
2023/07/29 00:37:25;;;;;;;0.00;0.00;;;;;;;;;;1752845;28;20494;-79
2023/07/29 00:38:16;;;;;;;0.00;0.00;;;;;;;;;;1753167;28;20630;-79
2023/07/29 00:39:08;;;;;;;0.00;0.00;;;;;;;;;;1753077;28;20532;-79
2023/07/29 00:39:59;;;;;;;0.00;0.00;;;;;;;;;;1752729;28;20498;-79
2023/07/29 00:40:50;;;;;;;0.00;0.00;;;;;;;;;;1749360;28;20337;-79
2023/07/29 00:41:42;;;;;;;0.00;0.00;;;;;;;;;;1752951;28;20463;-79
2023/07/29 00:42:33;;;;;;;0.00;0.00;;;;;;;;;;1752108;28;20506;-79
2023/07/29 00:43:26;;;;;;;0.00;0.00;;;;;;;;;;1752364;28;20474;-79
2023/07/29 00:44:18;;;;;;;0.00;0.00;;;;;;;;;;1750921;28;20463;-79
2023/07/29 00:45:09;;;;;;;0.00;0.00;;;;;;;;;;1751532;28;20210;-79
2023/07/29 00:46:01;;;;;;;0.00;0.00;;;;;;;;;;1752852;28;20467;-79
2023/07/29 00:46:54;;;;;;;0.00;0.00;;;;;;;;;;1754080;28;20468;-79
2023/07/29 00:47:45;;;;;;;0.00;0.00;;;;;;;;;;1753054;28;20514;-78
2023/07/29 00:48:36;;;;;;;0.00;0.00;;;;;;;;;;1755319;28;20536;-79
2023/07/29 00:49:28;;;;;;;0.00;0.00;;;;;;;;;;1755945;28;20510;-79
2023/07/29 00:50:19;;;;;;;0.00;0.00;;;;;;;;;;1751142;28;20650;-80
2023/07/29 00:51:11;;;;;;;0.00;0.00;;;;;;;;;;1753088;28;20194;-79
2023/07/29 00:52:02;;;;;;;0.00;0.00;;;;;;;;;;1752738;28;20593;-80
2023/07/29 00:52:55;;;;;;;0.00;0.00;;;;;;;;;;1753748;28;20641;-80
2023/07/29 00:53:46;;;;;;;0.00;0.00;;;;;;;;;;1752561;28;20304;-80
2023/07/29 00:54:38;;;;;;;0.00;0.00;;;;;;;;;;1753441;28;20468;-80
2023/07/29 00:55:29;;;;;;;0.00;0.00;;;;;;;;;;1748886;28;20292;-80
2023/07/29 00:56:20;;;;;;;0.00;0.00;;;;;;;;;;1753979;28;20193;-80
2023/07/29 00:57:13;;;;;;;0.00;0.00;;;;;;;;;;1752553;28;20532;-80
2023/07/29 00:58:05;;;;;;;0.00;0.00;;;;;;;;;;1754077;28;20487;-80
2023/07/29 00:59:01;;;;;;;0.00;0.00;;;;;;;;;;1751361;28;20193;-80
2023/07/29 00:59:52;;;;;;;0.00;0.00;;;;;;;;;;1747717;28;20647;-81
2023/07/29 01:00:44;;;;;;;0.00;0.00;;;;;;;;;;1751500;28;20229;-81
2023/07/29 01:01:36;;;;;;;0.00;0.00;;;;;;;;;;1751483;28;20558;-81
2023/07/29 01:02:29;;;;;;;0.00;0.00;;;;;;;;;;1750910;28;20202;-81
2023/07/29 01:03:21;;;;;;;0.00;0.00;;;;;;;;;;1752641;28;20209;-81
2023/07/29 01:04:13;;;;;;;0.00;0.00;;;;;;;;;;1749744;28;20228;-81
2023/07/29 01:05:06;;;;;;;0.00;0.00;;;;;;;;;;1753157;28;20918;-81
2023/07/29 01:06:02;;;;;;;0.00;0.00;;;;;;;;;;1751516;28;20982;-81
2023/07/29 01:07:00;;;;;;;0.00;0.00;;;;;;;;;;1750749;28;20494;-81
2023/07/29 01:07:54;;;;;;;0.00;0.00;;;;;;;;;;1753348;28;20451;-81
2023/07/29 01:08:50;;;;;;;0.00;0.00;;;;;;;;;;1751933;28;20221;-81
2023/07/29 01:09:44;;;;;;;0.00;0.00;;;;;;;;;;1753131;28;20480;-81
2023/07/29 01:10:40;;;;;;;0.00;0.00;;;;;;;;;;1750911;28;20597;-81
2023/07/29 01:11:37;;;;;;;0.00;0.00;;;;;;;;;;1749267;28;20572;-81
2023/07/29 01:12:32;;;;;;;0.00;0.00;;;;;;;;;;1752728;28;20515;-81
2023/07/29 01:13:26;;;;;;;0.00;0.00;;;;;;;;;;1752651;28;20466;-81
2023/07/29 01:14:23;;;;;;;0.00;0.00;;;;;;;;;;1750735;28;20202;-82
2023/07/29 01:15:16;;;;;;;0.00;0.00;;;;;;;;;;1751083;28;20908;-81
2023/07/29 01:16:10;;;;;;;0.00;0.00;;;;;;;;;;1754384;28;20592;-81
2023/07/29 01:17:04;;;;;;;0.00;0.00;;;;;;;;;;1753299;28;20339;-81
2023/07/29 01:17:56;;;;;;;0.00;0.00;;;;;;;;;;1752946;28;20728;-81
2023/07/29 01:18:48;;;;;;;0.00;0.00;;;;;;;;;;1752853;28;20197;-81
2023/07/29 01:19:45;;;;;;;0.00;0.00;;;;;;;;;;1754167;28;20197;-81
2023/07/29 01:20:38;;;;;;;0.00;0.00;;;;;;;;;;1751832;28;20856;-81
2023/07/29 01:21:30;;;;;;;0.00;0.00;;;;;;;;;;1749232;28;20202;-80
2023/07/29 01:22:22;;;;;;;0.00;0.00;;;;;;;;;;1753625;28;20491;-80
2023/07/29 01:23:13;;;;;;;0.00;0.00;;;;;;;;;;1752353;28;20668;-80
2023/07/29 01:24:06;;;;;;;0.00;0.00;;;;;;;;;;1753315;28;20460;-80
2023/07/29 01:24:58;;;;;;;0.00;0.00;;;;;;;;;;1753598;28;20236;-80
2023/07/29 01:25:49;;;;;;;0.00;0.00;;;;;;;;;;1754348;28;20205;-80
2023/07/29 01:26:41;;;;;;;0.00;0.00;;;;;;;;;;1753863;28;20216;-80
2023/07/29 01:27:33;;;;;;;0.00;0.00;;;;;;;;;;1753717;28;20463;-81
2023/07/29 01:28:24;;;;;;;0.00;0.00;;;;;;;;;;1753117;28;20725;-81
2023/07/29 01:29:16;;;;;;;0.00;0.00;;;;;;;;;;1753235;28;20265;-81
2023/07/29 01:30:08;;;;;;;0.00;0.00;;;;;;;;;;1753686;28;20963;-81
2023/07/29 01:31:03;;;;;;;0.00;0.00;;;;;;;;;;1753808;28;20459;-80
2023/07/29 01:31:57;;;;;;;0.00;0.00;;;;;;;;;;1751486;28;20209;-81
2023/07/29 01:32:54;;;;;;;0.00;0.00;;;;;;;;;;1753674;28;20525;-80
2023/07/29 01:33:48;;;;;;;0.00;0.00;;;;;;;;;;1753523;28;20648;-81
2023/07/29 01:34:42;;;;;;;0.00;0.00;;;;;;;;;;1753621;28;20202;-81
2023/07/29 01:35:37;;;;;;;0.00;0.00;;;;;;;;;;1751434;28;20459;-80
2023/07/29 01:36:29;;;;;;;0.00;0.00;;;;;;;;;;1750522;28;20312;-80
2023/07/29 01:37:22;;;;;;;0.00;0.00;;;;;;;;;;1753155;28;20606;-80
2023/07/29 01:38:16;;;;;;;0.00;0.00;;;;;;;;;;1753782;28;20505;-81
2023/07/29 01:39:11;;;;;;;0.00;0.00;;;;;;;;;;1754633;28;20766;-80
2023/07/29 01:40:08;;;;;;;0.00;0.00;;;;;;;;;;1754311;28;21436;-79
2023/07/29 01:41:01;;;;;;;0.00;0.00;;;;;;;;;;1753469;28;20566;-79
2023/07/29 01:41:53;;;;;;;0.00;0.00;;;;;;;;;;1752151;28;20459;-79
2023/07/29 01:42:45;;;;;;;0.00;0.00;;;;;;;;;;1755864;28;20956;-79
2023/07/29 01:43:43;;;;;;;0.00;0.00;;;;;;;;;;1754586;28;20229;-81
2023/07/29 01:44:35;;;;;;;0.00;0.00;;;;;;;;;;1755520;28;20212;-81
2023/07/29 01:45:27;;;;;;;0.00;0.00;;;;;;;;;;1748582;28;20229;-81
2023/07/29 01:46:18;;;;;;;0.00;0.00;;;;;;;;;;1751397;28;20237;-80
2023/07/29 01:47:09;;;;;;;0.00;0.00;;;;;;;;;;1751731;28;20631;-80
2023/07/29 01:48:01;;;;;;;0.00;0.00;;;;;;;;;;1753056;28;20300;-80
2023/07/29 01:48:52;;;;;;;0.00;0.00;;;;;;;;;;1750791;28;20510;-80
2023/07/29 01:49:43;;;;;;;0.00;0.00;;;;;;;;;;1751907;28;20225;-80
2023/07/29 01:50:35;;;;;;;0.00;0.00;;;;;;;;;;1749178;28;20383;-80
2023/07/29 01:51:26;;;;;;;0.00;0.00;;;;;;;;;;1752214;28;20687;-80
2023/07/29 01:52:18;;;;;;;0.00;0.00;;;;;;;;;;1752393;28;20201;-80
2023/07/29 01:53:10;;;;;;;0.00;0.00;;;;;;;;;;1752475;28;20201;-80
2023/07/29 01:54:01;;;;;;;0.00;0.00;;;;;;;;;;1750393;28;20247;-80
2023/07/29 01:54:54;;;;;;;0.00;0.00;;;;;;;;;;1751218;28;20198;-80
2023/07/29 01:55:45;;;;;;;0.00;0.00;;;;;;;;;;1752527;28;20292;-80
2023/07/29 01:56:37;;;;;;;0.00;0.00;;;;;;;;;;1752134;28;20209;-80
2023/07/29 01:57:29;;;;;;;0.00;0.00;;;;;;;;;;1755104;28;20227;-80
2023/07/29 01:58:20;;;;;;;0.00;0.00;;;;;;;;;;1752563;28;20237;-80
2023/07/29 01:59:13;;;;;;;0.00;0.00;;;;;;;;;;1752256;28;20305;-80
2023/07/29 02:00:05;;;;;;;0.00;0.00;;;;;;;;;;1752232;28;20230;-80
2023/07/29 02:00:56;;;;;;;0.00;0.00;;;;;;;;;;1750967;28;20237;-80
2023/07/29 02:01:48;;;;;;;0.00;0.00;;;;;;;;;;1750069;28;20678;-80
2023/07/29 02:02:40;;;;;;;0.00;0.00;;;;;;;;;;1752511;28;20636;-80
2023/07/29 02:03:31;;;;;;;0.00;0.00;;;;;;;;;;1751981;28;20638;-80
2023/07/29 02:04:23;;;;;;;0.00;0.00;;;;;;;;;;1750483;28;20202;-80
2023/07/29 02:05:15;;;;;;;0.00;0.00;;;;;;;;;;1750393;28;20297;-80
2023/07/29 02:06:06;;;;;;;0.00;0.00;;;;;;;;;;1753866;28;20542;-83
2023/07/29 02:06:58;;;;;;;0.00;0.00;;;;;;;;;;1752537;28;20204;-82
2023/07/29 02:07:49;;;;;;;0.00;0.00;;;;;;;;;;1755204;28;20559;-81
2023/07/29 02:08:40;;;;;;;0.00;0.00;;;;;;;;;;1754328;28;20205;-81
2023/07/29 02:09:32;;;;;;;0.00;0.00;;;;;;;;;;1754943;28;20209;-82
2023/07/29 02:10:25;;;;;;;0.00;0.00;;;;;;;;;;1750643;28;20226;-82
2023/07/29 02:11:17;;;;;;;0.00;0.00;;;;;;;;;;1753845;28;20206;-79
2023/07/29 02:12:08;;;;;;;0.00;0.00;;;;;;;;;;1750966;28;20190;-80
2023/07/29 02:12:59;;;;;;;0.00;0.00;;;;;;;;;;1754659;28;20550;-80
2023/07/29 02:13:51;;;;;;;0.00;0.00;;;;;;;;;;1750881;28;20229;-80
2023/07/29 02:14:42;;;;;;;0.00;0.00;;;;;;;;;;1754300;28;20208;-80
2023/07/29 02:15:33;;;;;;;0.00;0.00;;;;;;;;;;1746259;28;20244;-80
2023/07/29 02:16:25;;;;;;;0.00;0.00;;;;;;;;;;1754724;28;20470;-80
2023/07/29 02:17:16;;;;;;;0.00;0.00;;;;;;;;;;1753562;28;20639;-80
2023/07/29 02:18:08;;;;;;;0.00;0.00;;;;;;;;;;1755351;28;20402;-80
2023/07/29 02:18:59;;;;;;;0.00;0.00;;;;;;;;;;1750552;28;20484;-80
2023/07/29 02:19:51;;;;;;;0.00;0.00;;;;;;;;;;1754853;28;20530;-80
2023/07/29 02:20:48;;;;;;;0.00;0.00;;;;;;;;;;1748940;28;20264;-81
2023/07/29 02:21:40;;;;;;;0.00;0.00;;;;;;;;;;1751167;28;20251;-80
2023/07/29 02:22:32;;;;;;;0.00;0.00;;;;;;;;;;1751837;28;20243;-81
2023/07/29 02:23:24;;;;;;;0.00;0.00;;;;;;;;;;1752839;28;20221;-81
2023/07/29 02:24:15;;;;;;;0.00;0.00;;;;;;;;;;1754198;28;20262;-81
2023/07/29 02:25:06;;;;;;;0.00;0.00;;;;;;;;;;1751174;28;20293;-81
2023/07/29 02:26:00;;;;;;;0.00;0.00;;;;;;;;;;1751875;28;20225;-81
2023/07/29 02:26:52;;;;;;;0.00;0.00;;;;;;;;;;1755646;28;20209;-81
2023/07/29 02:27:44;;;;;;;0.00;0.00;;;;;;;;;;1753835;28;20221;-81
2023/07/29 02:28:35;;;;;;;0.00;0.00;;;;;;;;;;1754465;28;20247;-81
2023/07/29 02:29:27;;;;;;;0.00;0.00;;;;;;;;;;1752170;28;20241;-81
2023/07/29 02:30:18;;;;;;;0.00;0.00;;;;;;;;;;1750864;28;20248;-81
2023/07/29 02:31:16;;;;;;;0.00;0.00;;;;;;;;;;1753761;28;20200;-82
2023/07/29 02:32:08;;;;;;;0.00;0.00;;;;;;;;;;1752900;28;20206;-81
2023/07/29 02:33:01;;;;;;;0.00;0.00;;;;;;;;;;1755433;28;20208;-81
2023/07/29 02:33:55;;;;;;;0.00;0.00;;;;;;;;;;1752499;28;20194;-81
2023/07/29 02:34:49;;;;;;;0.00;0.00;;;;;;;;;;1760696;28;20205;-81
2023/07/29 02:35:40;;;;;;;0.00;0.00;;;;;;;;;;1754649;28;20327;-81
2023/07/29 02:36:32;;;;;;;0.00;0.00;;;;;;;;;;1749141;28;20627;-81
2023/07/29 02:37:23;;;;;;;0.00;0.00;;;;;;;;;;1750146;28;20279;-81
2023/07/29 02:38:16;;;;;;;0.00;0.00;;;;;;;;;;1754028;28;20201;-82
2023/07/29 02:39:07;;;;;;;0.00;0.00;;;;;;;;;;1754001;28;20324;-81
2023/07/29 02:39:59;;;;;;;0.00;0.00;;;;;;;;;;1752188;28;20197;-83
2023/07/29 02:40:50;;;;;;;0.00;0.00;;;;;;;;;;1752728;28;20237;-82
2023/07/29 02:41:42;;;;;;;0.00;0.00;;;;;;;;;;1752199;28;20202;-82
2023/07/29 02:42:34;;;;;;;0.00;0.00;;;;;;;;;;1754884;28;20620;-81
2023/07/29 02:43:25;;;;;;;0.00;0.00;;;;;;;;;;1754724;28;20282;-81
2023/07/29 02:44:16;;;;;;;0.00;0.00;;;;;;;;;;1749168;28;20293;-82
2023/07/29 02:45:10;;;;;;;0.00;0.00;;;;;;;;;;1754906;28;20658;-81
2023/07/29 02:46:01;;;;;;;0.00;0.00;;;;;;;;;;1750871;28;20747;-81
2023/07/29 02:46:55;;;;;;;0.00;0.00;;;;;;;;;;1751639;28;20217;-82
2023/07/29 02:47:46;;;;;;;0.00;0.00;;;;;;;;;;1752449;28;20205;-82
2023/07/29 02:48:37;;;;;;;0.00;0.00;;;;;;;;;;1753136;28;20297;-82
2023/07/29 02:49:29;;;;;;;0.00;0.00;;;;;;;;;;1754325;28;20223;-82
2023/07/29 02:50:20;;;;;;;0.00;0.00;;;;;;;;;;1749675;28;20301;-82
2023/07/29 02:51:11;;;;;;;0.00;0.00;;;;;;;;;;1750222;28;20252;-82
2023/07/29 02:52:04;;;;;;;0.00;0.00;;;;;;;;;;1749109;28;20198;-82
2023/07/29 02:52:55;;;;;;;0.00;0.00;;;;;;;;;;1753953;28;20206;-82
2023/07/29 02:53:46;;;;;;;0.00;0.00;;;;;;;;;;1750119;28;20194;-82
2023/07/29 02:54:38;;;;;;;0.00;0.00;;;;;;;;;;1752570;28;20197;-82
2023/07/29 02:55:29;;;;;;;0.00;0.00;;;;;;;;;;1750818;28;20241;-82
2023/07/29 02:56:21;;;;;;;0.00;0.00;;;;;;;;;;1754286;28;20194;-81
2023/07/29 02:57:13;;;;;;;0.00;0.00;;;;;;;;;;1752734;28;20664;-80
2023/07/29 02:58:05;;;;;;;0.00;0.00;;;;;;;;;;1753341;28;20224;-80
2023/07/29 02:58:57;;;;;;;0.00;0.00;;;;;;;;;;1747847;28;20230;-81
2023/07/29 02:59:48;;;;;;;0.00;0.00;;;;;;;;;;1753474;28;20241;-81
2023/07/29 03:00:41;;;;;;;0.00;0.00;;;;;;;;;;1748925;28;20233;-82
2023/07/29 03:01:33;;;;;;;0.00;0.00;;;;;;;;;;1753672;28;20517;-82
2023/07/29 03:02:24;;;;;;;0.00;0.00;;;;;;;;;;1752255;28;20674;-82
2023/07/29 03:03:16;;;;;;;0.00;0.00;;;;;;;;;;1755260;28;20288;-82
2023/07/29 03:04:08;;;;;;;0.00;0.00;;;;;;;;;;1752736;28;20233;-83
2023/07/29 03:05:00;;;;;;;0.00;0.00;;;;;;;;;;1748912;28;20229;-82
2023/07/29 03:05:57;;;;;;;0.00;0.00;;;;;;;;;;1749531;28;20328;-82
2023/07/29 03:06:49;;;;;;;0.00;0.00;;;;;;;;;;1754036;28;20658;-82
2023/07/29 03:07:40;;;;;;;0.00;0.00;;;;;;;;;;1753909;28;20233;-82
2023/07/29 03:08:32;;;;;;;0.00;0.00;;;;;;;;;;1753501;28;20605;-82
2023/07/29 03:09:23;;;;;;;0.00;0.00;;;;;;;;;;1754943;28;20674;-82
2023/07/29 03:10:15;;;;;;;0.00;0.00;;;;;;;;;;1752382;28;20206;-82
2023/07/29 03:11:07;;;;;;;0.00;0.00;;;;;;;;;;1747096;28;20194;-82
2023/07/29 03:11:59;;;;;;;0.00;0.00;;;;;;;;;;1745422;28;20202;-82
2023/07/29 03:12:51;;;;;;;0.00;0.00;;;;;;;;;;1746962;28;20199;-82
2023/07/29 03:13:43;;;;;;;0.00;0.00;;;;;;;;;;1746673;28;20210;-81
2023/07/29 03:14:34;;;;;;;0.00;0.00;;;;;;;;;;1747317;28;20209;-81
2023/07/29 03:15:26;;;;;;;0.00;0.00;;;;;;;;;;1742514;28;20260;-81
2023/07/29 03:16:18;;;;;;;0.00;0.00;;;;;;;;;;1747407;28;20624;-82
2023/07/29 03:17:09;;;;;;;0.00;0.00;;;;;;;;;;1746381;28;20206;-82
2023/07/29 03:18:01;;;;;;;0.00;0.00;;;;;;;;;;1746916;28;20213;-82
2023/07/29 03:18:53;;;;;;;0.00;0.00;;;;;;;;;;1746816;28;20195;-82
2023/07/29 03:19:44;;;;;;;0.00;0.00;;;;;;;;;;1746770;28;20264;-82
2023/07/29 03:20:35;;;;;;;0.00;0.00;;;;;;;;;;1744116;28;20252;-82
2023/07/29 03:21:27;;;;;;;0.00;0.00;;;;;;;;;;1747276;28;20231;-82
2023/07/29 03:22:18;;;;;;;0.00;0.00;;;;;;;;;;1747579;28;20888;-81
2023/07/29 03:23:09;;;;;;;0.00;0.00;;;;;;;;;;1747710;28;20281;-82
2023/07/29 03:24:01;;;;;;;0.00;0.00;;;;;;;;;;1746960;28;20715;-82
2023/07/29 03:24:52;;;;;;;0.00;0.00;;;;;;;;;;1747828;28;20213;-82
2023/07/29 03:25:44;;;;;;;0.00;0.00;;;;;;;;;;1744970;28;20233;-82
2023/07/29 03:26:36;;;;;;;0.00;0.00;;;;;;;;;;1746574;28;20263;-82
2023/07/29 03:27:27;;;;;;;0.00;0.00;;;;;;;;;;1746027;28;20310;-81
2023/07/29 03:28:20;;;;;;;0.00;0.00;;;;;;;;;;1745933;28;20281;-81
2023/07/29 03:29:12;;;;;;;0.00;0.00;;;;;;;;;;1743448;28;20505;-81
2023/07/29 03:30:07;;;;;;;0.00;0.00;;;;;;;;;;1746485;28;20337;-81
2023/07/29 03:30:58;;;;;;;0.00;0.00;;;;;;;;;;1744545;28;20570;-82
2023/07/29 03:31:50;;;;;;;0.00;0.00;;;;;;;;;;1746523;28;20187;-81
2023/07/29 03:32:45;;;;;;;0.00;0.00;;;;;;;;;;1746579;28;20202;-81
2023/07/29 03:33:36;;;;;;;0.00;0.00;;;;;;;;;;1746793;28;20198;-81
2023/07/29 03:34:28;;;;;;;0.00;0.00;;;;;;;;;;1746697;28;20202;-81
2023/07/29 03:35:19;;;;;;;0.00;0.00;;;;;;;;;;1743385;28;20237;-81
2023/07/29 03:36:10;;;;;;;0.00;0.00;;;;;;;;;;1747061;28;20256;-81
2023/07/29 03:37:02;;;;;;;0.00;0.00;;;;;;;;;;1747188;28;21261;-81
2023/07/29 03:37:53;;;;;;;0.00;0.00;;;;;;;;;;1747565;28;20293;-81
2023/07/29 03:38:45;;;;;;;0.00;0.00;;;;;;;;;;1747157;28;20204;-81
2023/07/29 03:39:37;;;;;;;0.00;0.00;;;;;;;;;;1747536;28;20289;-81
2023/07/29 03:40:29;;;;;;;0.00;0.00;;;;;;;;;;1744548;28;20204;-81
2023/07/29 03:41:20;;;;;;;0.00;0.00;;;;;;;;;;1746973;28;20234;-82
2023/07/29 03:42:11;;;;;;;0.00;0.00;;;;;;;;;;1746492;28;20279;-81
2023/07/29 03:43:03;;;;;;;0.00;0.00;;;;;;;;;;1745797;28;20236;-81
2023/07/29 03:43:55;;;;;;;0.00;0.00;;;;;;;;;;1746496;28;20249;-81
2023/07/29 03:44:47;;;;;;;0.00;0.00;;;;;;;;;;1746671;28;20545;-81
2023/07/29 03:45:39;;;;;;;0.00;0.00;;;;;;;;;;1743927;28;20525;-81
2023/07/29 03:46:33;;;;;;;0.00;0.00;;;;;;;;;;1746696;28;20198;-80
2023/07/29 03:47:24;;;;;;;0.00;0.00;;;;;;;;;;1746426;28;20202;-80
2023/07/29 03:48:15;;;;;;;0.00;0.00;;;;;;;;;;1746989;28;20206;-81
2023/07/29 03:49:07;;;;;;;0.00;0.00;;;;;;;;;;1746950;28;20190;-81
2023/07/29 03:49:58;;;;;;;0.00;0.00;;;;;;;;;;1747355;28;20241;-81
2023/07/29 03:50:49;;;;;;;0.00;0.00;;;;;;;;;;1741730;28;20222;-81
2023/07/29 03:51:41;;;;;;;0.00;0.00;;;;;;;;;;1746223;28;20218;-81
2023/07/29 03:52:32;;;;;;;0.00;0.00;;;;;;;;;;1747469;28;20238;-82
2023/07/29 03:53:24;;;;;;;0.00;0.00;;;;;;;;;;1746787;28;20205;-82
2023/07/29 03:54:15;;;;;;;0.00;0.00;;;;;;;;;;1747434;28;20244;-82
2023/07/29 03:55:07;;;;;;;0.00;0.00;;;;;;;;;;1747825;28;20659;-82
2023/07/29 03:55:59;;;;;;;0.00;0.00;;;;;;;;;;1745737;28;20253;-83
2023/07/29 03:56:51;;;;;;;0.00;0.00;;;;;;;;;;1747134;28;20584;-81
2023/07/29 03:57:42;;;;;;;0.00;0.00;;;;;;;;;;1747183;28;20230;-81
2023/07/29 03:58:34;;;;;;;0.00;0.00;;;;;;;;;;1747037;28;20202;-81
2023/07/29 03:59:26;;;;;;;0.00;0.00;;;;;;;;;;1747296;28;20202;-81
2023/07/29 04:00:18;;;;;;;0.00;0.00;;;;;;;;;;1746221;28;20457;-80
2023/07/29 04:01:10;;;;;;;0.00;0.00;;;;;;;;;;1747788;28;20517;-80
2023/07/29 04:02:01;;;;;;;0.00;0.00;;;;;;;;;;1746939;28;20606;-80
2023/07/29 04:02:53;;;;;;;0.00;0.00;;;;;;;;;;1747374;28;20267;-80
2023/07/29 04:03:45;;;;;;;0.00;0.00;;;;;;;;;;1747041;28;20198;-81
2023/07/29 04:04:37;;;;;;;0.00;0.00;;;;;;;;;;1745923;28;20224;-82
2023/07/29 04:05:29;;;;;;;0.00;0.00;;;;;;;;;;1743231;28;20285;-81
2023/07/29 04:06:20;;;;;;;0.00;0.00;;;;;;;;;;1746178;28;20202;-81
2023/07/29 04:07:12;;;;;;;0.00;0.00;;;;;;;;;;1745807;28;20209;-81
2023/07/29 04:08:03;;;;;;;0.00;0.00;;;;;;;;;;1746789;28;20202;-80
2023/07/29 04:08:54;;;;;;;0.00;0.00;;;;;;;;;;1746313;28;20285;-80
2023/07/29 04:09:46;;;;;;;0.00;0.00;;;;;;;;;;1746805;28;20198;-80
2023/07/29 04:10:37;;;;;;;0.00;0.00;;;;;;;;;;1744600;28;20860;-80
2023/07/29 04:11:29;;;;;;;0.00;0.00;;;;;;;;;;1746566;28;20233;-80
2023/07/29 04:12:21;;;;;;;0.00;0.00;;;;;;;;;;1746569;28;20710;-81
2023/07/29 04:13:12;;;;;;;0.00;0.00;;;;;;;;;;1743674;28;20210;-81
2023/07/29 04:14:04;;;;;;;0.00;0.00;;;;;;;;;;1746827;28;20285;-81
2023/07/29 04:14:57;;;;;;;0.00;0.00;;;;;;;;;;1746366;28;20841;-81
2023/07/29 04:15:49;;;;;;;0.00;0.00;;;;;;;;;;1744589;28;20237;-81
2023/07/29 04:16:40;;;;;;;0.00;0.00;;;;;;;;;;1746583;28;20249;-81
2023/07/29 04:17:32;;;;;;;0.00;0.00;;;;;;;;;;1746331;28;20226;-81
2023/07/29 04:18:23;;;;;;;0.00;0.00;;;;;;;;;;1746570;28;20600;-81
2023/07/29 04:19:14;;;;;;;0.00;0.00;;;;;;;;;;1746474;28;20275;-81
2023/07/29 04:20:07;;;;;;;0.00;0.00;;;;;;;;;;1746893;28;20202;-80
2023/07/29 04:20:58;;;;;;;0.00;0.00;;;;;;;;;;1745042;28;20866;-81
2023/07/29 04:21:51;;;;;;;0.00;0.00;;;;;;;;;;1747472;28;20332;-81
2023/07/29 04:22:42;;;;;;;0.00;0.00;;;;;;;;;;1745922;28;20221;-81
2023/07/29 04:23:35;;;;;;;0.00;0.00;;;;;;;;;;1750578;28;20239;-81
2023/07/29 04:24:26;;;;;;;0.00;0.00;;;;;;;;;;1753248;28;20198;-80
2023/07/29 04:25:18;;;;;;;0.00;0.00;;;;;;;;;;1751544;28;20545;-81
2023/07/29 04:26:09;;;;;;;0.00;0.00;;;;;;;;;;1751651;28;20260;-81
2023/07/29 04:27:00;;;;;;;0.00;0.00;;;;;;;;;;1752080;28;20222;-81
2023/07/29 04:27:52;;;;;;;0.00;0.00;;;;;;;;;;1752468;28;20269;-81
2023/07/29 04:28:43;;;;;;;0.00;0.00;;;;;;;;;;1751547;28;20194;-82
2023/07/29 04:29:35;;;;;;;0.00;0.00;;;;;;;;;;1748622;28;20202;-83
2023/07/29 04:30:29;;;;;;;0.00;0.00;;;;;;;;;;1747354;28;20212;-81
2023/07/29 04:31:20;;;;;;;0.00;0.00;;;;;;;;;;1749169;28;20269;-81
2023/07/29 04:32:12;;;;;;;0.00;0.00;;;;;;;;;;1748697;28;20213;-81
2023/07/29 04:33:03;;;;;;;0.00;0.00;;;;;;;;;;1748202;28;20229;-81
2023/07/29 04:33:55;;;;;;;0.00;0.00;;;;;;;;;;1747955;28;20268;-81
2023/07/29 04:34:47;;;;;;;0.00;0.00;;;;;;;;;;1748484;28;20202;-81
2023/07/29 04:35:39;;;;;;;0.00;0.00;;;;;;;;;;1743001;28;20481;-81
2023/07/29 04:36:30;;;;;;;0.00;0.00;;;;;;;;;;1742296;28;20468;-81
2023/07/29 04:37:21;;;;;;;0.00;0.00;;;;;;;;;;1745364;28;20910;-82
2023/07/29 04:38:13;;;;;;;0.00;0.00;;;;;;;;;;1747488;28;20206;-81
2023/07/29 04:39:05;;;;;;;0.00;0.00;;;;;;;;;;1744278;28;20246;-82
2023/07/29 04:39:56;;;;;;;0.00;0.00;;;;;;;;;;1745487;28;20563;-82
2023/07/29 04:40:50;;;;;;;0.00;0.00;;;;;;;;;;1746041;28;20558;-82
2023/07/29 04:41:41;;;;;;;0.00;0.00;;;;;;;;;;1747795;28;20211;-82
2023/07/29 04:42:33;;;;;;;0.00;0.00;;;;;;;;;;1747158;28;20205;-81
2023/07/29 04:43:27;;;;;;;0.00;0.00;;;;;;;;;;1747310;28;20610;-81
2023/07/29 04:44:19;;;;;;;0.00;0.00;;;;;;;;;;1747483;28;20598;-82
2023/07/29 04:45:10;;;;;;;0.00;0.00;;;;;;;;;;1747838;28;20675;-82
2023/07/29 04:46:03;;;;;;;0.00;0.00;;;;;;;;;;1748275;28;20520;-82
2023/07/29 04:46:55;;;;;;;0.00;0.00;;;;;;;;;;1749997;28;20540;-82
2023/07/29 04:47:47;;;;;;;0.00;0.00;;;;;;;;;;1750188;28;20468;-82
2023/07/29 04:48:38;;;;;;;0.00;0.00;;;;;;;;;;1749323;28;20548;-82
2023/07/29 04:49:30;;;;;;;0.00;0.00;;;;;;;;;;1749762;28;20460;-84
2023/07/29 04:50:21;;;;;;;0.00;0.00;;;;;;;;;;1746711;28;20281;-83
2023/07/29 04:51:13;;;;;;;0.00;0.00;;;;;;;;;;1748869;28;20187;-84
2023/07/29 04:52:04;;;;;;;0.00;0.00;;;;;;;;;;1747932;28;20206;-83
2023/07/29 04:52:56;;;;;;;0.00;0.00;;;;;;;;;;1749152;28;20902;-83
2023/07/29 04:53:48;;;;;;;0.00;0.00;;;;;;;;;;1747336;28;20598;-83
2023/07/29 04:54:40;;;;;;;0.00;0.00;;;;;;;;;;1744800;28;20504;-83
2023/07/29 04:55:31;;;;;;;0.00;0.00;;;;;;;;;;1746532;28;20312;-83
2023/07/29 04:56:23;;;;;;;0.00;0.00;;;;;;;;;;1754074;28;20823;-84
2023/07/29 04:57:14;;;;;;;0.00;0.00;;;;;;;;;;1750810;28;20544;-84
2023/07/29 04:58:05;;;;;;;0.00;0.00;;;;;;;;;;1752770;28;20547;-84
2023/07/29 04:58:57;;;;;;;0.00;0.00;;;;;;;;;;1751881;28;20942;-84
2023/07/29 04:59:48;;;;;;;0.00;0.00;;;;;;;;;;1753112;28;20655;-84
2023/07/29 05:00:40;;;;;;;0.00;0.00;;;;;;;;;;1750005;28;20264;-84
2023/07/29 05:01:33;;;;;;;0.00;0.00;;;;;;;;;;1754073;28;20495;-84
2023/07/29 05:02:25;;;;;;;0.00;0.00;;;;;;;;;;1753314;28;20904;-84
2023/07/29 05:03:16;;;;;;;0.00;0.00;;;;;;;;;;1748953;28;20790;-84
2023/07/29 05:04:07;;;;;;;0.00;0.00;;;;;;;;;;1754080;28;20197;-84
2023/07/29 05:04:59;;;;;;;0.00;0.00;;;;;;;;;;1753796;28;20217;-84
2023/07/29 05:05:51;;;;;;;0.00;0.00;;;;;;;;;;1745514;28;20983;-84
2023/07/29 05:06:42;;;;;;;0.00;0.00;;;;;;;;;;1747449;28;20461;-84
2023/07/29 05:07:34;;;;;;;0.00;0.00;;;;;;;;;;1747409;28;20464;-84
2023/07/29 05:08:25;;;;;;;0.00;0.00;;;;;;;;;;1746640;28;20232;-84
2023/07/29 05:09:18;;;;;;;0.00;0.00;;;;;;;;;;1747523;28;20468;-84
2023/07/29 05:10:09;;;;;;;0.00;0.00;;;;;;;;;;1743510;28;20296;-85
2023/07/29 05:11:00;;;;;;;0.00;0.00;;;;;;;;;;1751560;28;20228;-84
2023/07/29 05:11:52;;;;;;;0.00;0.00;;;;;;;;;;1752831;28;20209;-84